sensor_id;sensor_type;location;lat;lon;timestamp;pressure;altitude;pressure_sealevel;temperature;humidity
77603;BME280;66771;52.434;17.056;2023-03-14T00:02:05;98630.87;;;11.05;76.99
77603;BME280;66771;52.434;17.056;2023-03-14T00:04:44;98628.60;;;11.06;76.94
77603;BME280;66771;52.434;17.056;2023-03-14T00:07:14;98626.91;;;11.05;76.90
77603;BME280;66771;52.434;17.056;2023-03-14T00:09:44;98625.27;;;11.05;76.79
77603;BME280;66771;52.434;17.056;2023-03-14T00:12:11;98626.73;;;11.12;77.07
77603;BME280;66771;52.434;17.056;2023-03-14T00:14:41;98620.83;;;11.12;76.97
77603;BME280;66771;52.434;17.056;2023-03-14T00:17:10;98621.19;;;11.14;76.84
77603;BME280;66771;52.434;17.056;2023-03-14T00:19:52;98620.95;;;11.17;76.97
77603;BME280;66771;52.434;17.056;2023-03-14T00:22:21;98626.29;;;11.20;76.77
77603;BME280;66771;52.434;17.056;2023-03-14T00:24:48;98628.45;;;11.19;76.89
77603;BME280;66771;52.434;17.056;2023-03-14T00:27:22;98621.11;;;11.23;76.63
77603;BME280;66771;52.434;17.056;2023-03-14T00:29:49;98614.09;;;11.24;76.52
77603;BME280;66771;52.434;17.056;2023-03-14T00:32:16;98613.17;;;11.29;76.35
77603;BME280;66771;52.434;17.056;2023-03-14T00:34:43;98604.77;;;11.35;76.40
77603;BME280;66771;52.434;17.056;2023-03-14T00:37:10;98602.48;;;11.34;76.49
77603;BME280;66771;52.434;17.056;2023-03-14T00:39:38;98602.48;;;11.33;76.41
77603;BME280;66771;52.434;17.056;2023-03-14T00:42:08;98596.69;;;11.36;76.68
77603;BME280;66771;52.434;17.056;2023-03-14T00:44:35;98597.02;;;11.36;76.70
77603;BME280;66771;52.434;17.056;2023-03-14T00:47:02;98592.71;;;11.38;76.69
77603;BME280;66771;52.434;17.056;2023-03-14T00:49:29;98593.55;;;11.38;76.60
77603;BME280;66771;52.434;17.056;2023-03-14T00:51:55;98584.98;;;11.38;76.63
77603;BME280;66771;52.434;17.056;2023-03-14T00:54:22;98576.60;;;11.39;76.72
77603;BME280;66771;52.434;17.056;2023-03-14T00:56:49;98575.81;;;11.42;76.71
77603;BME280;66771;52.434;17.056;2023-03-14T00:59:16;98572.05;;;11.39;76.54
77603;BME280;66771;52.434;17.056;2023-03-14T01:01:44;98575.38;;;11.43;76.92
77603;BME280;66771;52.434;17.056;2023-03-14T01:04:13;98576.52;;;11.41;77.22
77603;BME280;66771;52.434;17.056;2023-03-14T01:06:40;98572.97;;;11.36;77.48
77603;BME280;66771;52.434;17.056;2023-03-14T01:09:07;98578.79;;;11.34;77.60
77603;BME280;66771;52.434;17.056;2023-03-14T01:11:34;98566.52;;;11.35;77.68
77603;BME280;66771;52.434;17.056;2023-03-14T01:14:03;98566.27;;;11.39;77.91
77603;BME280;66771;52.434;17.056;2023-03-14T01:16:33;98564.91;;;11.34;78.23
77603;BME280;66771;52.434;17.056;2023-03-14T01:19:01;98561.23;;;11.25;78.77
77603;BME280;66771;52.434;17.056;2023-03-14T01:21:31;98547.15;;;11.14;79.34
77603;BME280;66771;52.434;17.056;2023-03-14T01:23:59;98540.81;;;11.02;79.48
77603;BME280;66771;52.434;17.056;2023-03-14T01:26:29;98539.85;;;10.94;79.99
77603;BME280;66771;52.434;17.056;2023-03-14T01:28:56;98532.20;;;10.90;80.58
77603;BME280;66771;52.434;17.056;2023-03-14T01:31:24;98522.80;;;10.87;80.84
77603;BME280;66771;52.434;17.056;2023-03-14T01:33:52;98516.60;;;10.89;80.90
77603;BME280;66771;52.434;17.056;2023-03-14T01:36:19;98507.28;;;10.90;81.17
77603;BME280;66771;52.434;17.056;2023-03-14T01:38:46;98495.96;;;10.92;81.55
77603;BME280;66771;52.434;17.056;2023-03-14T01:41:16;98478.96;;;10.95;81.68
77603;BME280;66771;52.434;17.056;2023-03-14T01:43:45;98462.66;;;10.96;81.77
77603;BME280;66771;52.434;17.056;2023-03-14T01:48:51;98438.50;;;11.04;81.81
77603;BME280;66771;52.434;17.056;2023-03-14T01:51:32;98423.02;;;10.97;81.80
77603;BME280;66771;52.434;17.056;2023-03-14T01:54:06;98433.73;;;11.04;82.04
77603;BME280;66771;52.434;17.056;2023-03-14T01:56:35;98424.52;;;10.98;82.15
77603;BME280;66771;52.434;17.056;2023-03-14T01:59:06;98430.27;;;11.00;82.29
77603;BME280;66771;52.434;17.056;2023-03-14T02:01:35;98426.34;;;10.97;82.23
77603;BME280;66771;52.434;17.056;2023-03-14T02:18:20;98434.09;;;11.46;80.97
77603;BME280;66771;52.434;17.056;2023-03-14T02:21:00;98420.48;;;11.45;80.88
77603;BME280;66771;52.434;17.056;2023-03-14T02:26:16;98455.66;;;11.35;81.21
77603;BME280;66771;52.434;17.056;2023-03-14T02:28:47;98471.48;;;11.31;81.32
77603;BME280;66771;52.434;17.056;2023-03-14T02:31:15;98474.48;;;11.25;81.43
77603;BME280;66771;52.434;17.056;2023-03-14T02:33:42;98461.27;;;11.08;81.53
77603;BME280;66771;52.434;17.056;2023-03-14T02:36:12;98475.54;;;11.08;81.66
77603;BME280;66771;52.434;17.056;2023-03-14T02:41:27;98463.73;;;10.98;81.86
77603;BME280;66771;52.434;17.056;2023-03-14T02:44:03;98462.88;;;10.94;81.91
77603;BME280;66771;52.434;17.056;2023-03-14T02:46:31;98463.49;;;10.92;82.06
77603;BME280;66771;52.434;17.056;2023-03-14T02:49:03;98462.34;;;10.91;82.14
77603;BME280;66771;52.434;17.056;2023-03-14T02:51:31;98459.89;;;10.87;82.05
77603;BME280;66771;52.434;17.056;2023-03-14T02:53:59;98459.34;;;10.82;82.03
77603;BME280;66771;52.434;17.056;2023-03-14T02:56:26;98460.02;;;10.80;82.06
77603;BME280;66771;52.434;17.056;2023-03-14T02:58:53;98453.19;;;10.78;82.15
77603;BME280;66771;52.434;17.056;2023-03-14T03:01:35;98443.34;;;10.73;82.06
77603;BME280;66771;52.434;17.056;2023-03-14T03:04:02;98448.98;;;10.74;82.22
77603;BME280;66771;52.434;17.056;2023-03-14T03:06:29;98455.77;;;10.71;82.17
77603;BME280;66771;52.434;17.056;2023-03-14T03:08:56;98457.02;;;10.68;82.32
77603;BME280;66771;52.434;17.056;2023-03-14T03:11:23;98465.89;;;10.64;82.24
77603;BME280;66771;52.434;17.056;2023-03-14T03:13:50;98465.33;;;10.60;82.19
77603;BME280;66771;52.434;17.056;2023-03-14T03:16:17;98460.95;;;10.57;82.24
77603;BME280;66771;52.434;17.056;2023-03-14T03:18:44;98452.39;;;10.57;82.26
77603;BME280;66771;52.434;17.056;2023-03-14T03:21:10;98453.82;;;10.54;82.27
77603;BME280;66771;52.434;17.056;2023-03-14T03:23:37;98456.14;;;10.52;82.24
77603;BME280;66771;52.434;17.056;2023-03-14T03:26:05;98441.34;;;10.39;82.26
77603;BME280;66771;52.434;17.056;2023-03-14T03:28:31;98460.37;;;10.44;82.18
77603;BME280;66771;52.434;17.056;2023-03-14T03:30:59;98459.47;;;10.40;82.38
77603;BME280;66771;52.434;17.056;2023-03-14T03:33:25;98456.48;;;10.36;82.22
77603;BME280;66771;52.434;17.056;2023-03-14T03:35:52;98450.89;;;10.34;82.24
77603;BME280;66771;52.434;17.056;2023-03-14T03:38:24;98443.10;;;10.33;82.10
77603;BME280;66771;52.434;17.056;2023-03-14T03:40:52;98432.23;;;10.30;82.09
77603;BME280;66771;52.434;17.056;2023-03-14T03:43:19;98425.65;;;10.22;81.96
77603;BME280;66771;52.434;17.056;2023-03-14T03:45:46;98422.40;;;10.17;82.02
77603;BME280;66771;52.434;17.056;2023-03-14T03:48:13;98434.91;;;10.12;81.98
77603;BME280;66771;52.434;17.056;2023-03-14T03:50:45;98429.69;;;10.05;82.11
77603;BME280;66771;52.434;17.056;2023-03-14T03:53:12;98428.19;;;9.96;82.08
77603;BME280;66771;52.434;17.056;2023-03-14T03:55:42;98405.45;;;9.89;82.09
77603;BME280;66771;52.434;17.056;2023-03-14T03:58:09;98397.52;;;9.77;81.96
77603;BME280;66771;52.434;17.056;2023-03-14T04:00:36;98402.98;;;9.70;82.10
77603;BME280;66771;52.434;17.056;2023-03-14T04:03:03;98397.65;;;9.70;82.27
77603;BME280;66771;52.434;17.056;2023-03-14T04:05:31;98383.29;;;9.70;82.06
77603;BME280;66771;52.434;17.056;2023-03-14T04:08:03;98374.14;;;9.67;81.95
77603;BME280;66771;52.434;17.056;2023-03-14T04:10:34;98373.84;;;9.61;81.93
77603;BME280;66771;52.434;17.056;2023-03-14T04:13:27;98376.59;;;9.54;81.81
77603;BME280;66771;52.434;17.056;2023-03-14T04:15:55;98379.98;;;9.47;81.79
77603;BME280;66771;52.434;17.056;2023-03-14T04:18:25;98376.81;;;9.42;81.71
77603;BME280;66771;52.434;17.056;2023-03-14T04:20:57;98374.02;;;9.33;81.58
77603;BME280;66771;52.434;17.056;2023-03-14T04:23:29;98369.67;;;9.23;81.64
77603;BME280;66771;52.434;17.056;2023-03-14T04:25:56;98381.19;;;9.15;81.64
77603;BME280;66771;52.434;17.056;2023-03-14T04:28:23;98377.04;;;9.05;81.70
77603;BME280;66771;52.434;17.056;2023-03-14T04:30:50;98378.27;;;9.03;81.45
77603;BME280;66771;52.434;17.056;2023-03-14T04:33:21;98378.98;;;8.97;81.63
77603;BME280;66771;52.434;17.056;2023-03-14T04:35:54;98390.73;;;8.87;81.63
77603;BME280;66771;52.434;17.056;2023-03-14T04:38:21;98394.49;;;8.77;81.69
77603;BME280;66771;52.434;17.056;2023-03-14T04:40:48;98384.88;;;8.66;81.54
77603;BME280;66771;52.434;17.056;2023-03-14T04:43:16;98375.80;;;8.57;81.63
77603;BME280;66771;52.434;17.056;2023-03-14T04:45:57;98368.13;;;8.55;81.81
77603;BME280;66771;52.434;17.056;2023-03-14T04:48:26;98366.59;;;8.53;81.83
77603;BME280;66771;52.434;17.056;2023-03-14T04:50:53;98364.33;;;8.42;81.47
77603;BME280;66771;52.434;17.056;2023-03-14T04:53:20;98355.95;;;8.40;81.70
77603;BME280;66771;52.434;17.056;2023-03-14T04:55:50;98348.13;;;8.39;81.70
77603;BME280;66771;52.434;17.056;2023-03-14T04:58:18;98348.13;;;8.38;81.61
77603;BME280;66771;52.434;17.056;2023-03-14T05:00:46;98340.33;;;8.37;81.74
77603;BME280;66771;52.434;17.056;2023-03-14T05:03:33;98347.68;;;8.31;81.64
77603;BME280;66771;52.434;17.056;2023-03-14T05:06:14;98353.32;;;8.29;81.73
77603;BME280;66771;52.434;17.056;2023-03-14T05:08:52;98344.30;;;8.26;81.46
77603;BME280;66771;52.434;17.056;2023-03-14T05:11:38;98349.82;;;8.27;81.48
77603;BME280;66771;52.434;17.056;2023-03-14T05:14:24;98357.19;;;8.30;81.37
77603;BME280;66771;52.434;17.056;2023-03-14T05:17:14;98361.77;;;8.31;81.37
77603;BME280;66771;52.434;17.056;2023-03-14T05:19:59;98358.97;;;8.30;81.17
77603;BME280;66771;52.434;17.056;2023-03-14T05:22:47;98364.34;;;8.23;81.26
77603;BME280;66771;52.434;17.056;2023-03-14T05:25:24;98370.80;;;8.16;81.15
77603;BME280;66771;52.434;17.056;2023-03-14T05:28:10;98370.76;;;8.16;81.18
77603;BME280;66771;52.434;17.056;2023-03-14T05:31:13;98370.67;;;8.17;81.03
77603;BME280;66771;52.434;17.056;2023-03-14T05:34:09;98369.30;;;8.25;81.08
77603;BME280;66771;52.434;17.056;2023-03-14T05:36:54;98363.95;;;8.29;80.91
77603;BME280;66771;52.434;17.056;2023-03-14T05:39:48;98361.08;;;8.29;80.67
77603;BME280;66771;52.434;17.056;2023-03-14T05:42:35;98356.92;;;8.32;80.53
77603;BME280;66771;52.434;17.056;2023-03-14T05:45:11;98366.66;;;8.32;80.53
77603;BME280;66771;52.434;17.056;2023-03-14T05:47:58;98371.56;;;8.34;80.50
77603;BME280;66771;52.434;17.056;2023-03-14T05:50:39;98370.60;;;8.40;80.52
77603;BME280;66771;52.434;17.056;2023-03-14T05:53:41;98353.39;;;8.51;80.42
77603;BME280;66771;52.434;17.056;2023-03-14T05:56:33;98352.20;;;8.57;80.36
77603;BME280;66771;52.434;17.056;2023-03-14T05:59:12;98349.34;;;8.58;80.39
77603;BME280;66771;52.434;17.056;2023-03-14T06:02:15;98350.23;;;8.62;79.92
77603;BME280;66771;52.434;17.056;2023-03-14T06:04:48;98350.30;;;8.63;79.94
77603;BME280;66771;52.434;17.056;2023-03-14T06:07:15;98352.31;;;8.68;79.77
77603;BME280;66771;52.434;17.056;2023-03-14T06:09:42;98355.64;;;8.77;79.92
77603;BME280;66771;52.434;17.056;2023-03-14T06:12:09;98355.04;;;8.81;79.95
77603;BME280;66771;52.434;17.056;2023-03-14T06:14:40;98351.25;;;8.84;79.72
77603;BME280;66771;52.434;17.056;2023-03-14T06:17:07;98353.40;;;8.93;79.74
77603;BME280;66771;52.434;17.056;2023-03-14T06:19:38;98358.55;;;9.02;79.71
77603;BME280;66771;52.434;17.056;2023-03-14T06:22:05;98355.08;;;9.10;79.64
77603;BME280;66771;52.434;17.056;2023-03-14T06:24:32;98357.57;;;9.19;79.61
77603;BME280;66771;52.434;17.056;2023-03-14T06:27:00;98360.52;;;9.27;79.28
77603;BME280;66771;52.434;17.056;2023-03-14T06:29:29;98353.42;;;9.36;79.20
77603;BME280;66771;52.434;17.056;2023-03-14T06:31:57;98357.23;;;9.47;79.03
77603;BME280;66771;52.434;17.056;2023-03-14T06:34:24;98368.11;;;9.57;78.79
77603;BME280;66771;52.434;17.056;2023-03-14T06:36:50;98371.54;;;9.67;78.60
77603;BME280;66771;52.434;17.056;2023-03-14T06:39:17;98356.43;;;9.72;78.36
77603;BME280;66771;52.434;17.056;2023-03-14T06:41:45;98345.45;;;9.81;77.60
77603;BME280;66771;52.434;17.056;2023-03-14T06:44:12;98333.63;;;9.87;78.05
77603;BME280;66771;52.434;17.056;2023-03-14T06:46:39;98336.22;;;9.99;78.09
77603;BME280;66771;52.434;17.056;2023-03-14T06:49:06;98338.48;;;10.09;78.08
77603;BME280;66771;52.434;17.056;2023-03-14T06:51:33;98331.49;;;10.20;77.76
77603;BME280;66771;52.434;17.056;2023-03-14T06:54:02;98331.56;;;10.30;77.52
77603;BME280;66771;52.434;17.056;2023-03-14T06:56:30;98338.81;;;10.35;77.59
77603;BME280;66771;52.434;17.056;2023-03-14T06:58:57;98341.52;;;10.43;77.62
77603;BME280;66771;52.434;17.056;2023-03-14T07:01:27;98336.05;;;10.52;77.37
77603;BME280;66771;52.434;17.056;2023-03-14T07:03:57;98329.38;;;10.62;76.91
77603;BME280;66771;52.434;17.056;2023-03-14T07:06:24;98333.35;;;10.71;76.62
77603;BME280;66771;52.434;17.056;2023-03-14T07:08:51;98327.45;;;10.75;76.56
77603;BME280;66771;52.434;17.056;2023-03-14T07:11:19;98328.75;;;10.85;76.52
77603;BME280;66771;52.434;17.056;2023-03-14T07:13:46;98329.05;;;10.92;76.22
77603;BME280;66771;52.434;17.056;2023-03-14T07:16:13;98319.96;;;10.99;76.51
77603;BME280;66771;52.434;17.056;2023-03-14T07:18:40;98325.88;;;11.04;76.59
77603;BME280;66771;52.434;17.056;2023-03-14T07:21:07;98331.34;;;11.05;76.33
77603;BME280;66771;52.434;17.056;2023-03-14T07:23:38;98325.79;;;11.07;76.49
77603;BME280;66771;52.434;17.056;2023-03-14T07:26:07;98326.26;;;11.07;76.32
77603;BME280;66771;52.434;17.056;2023-03-14T07:28:34;98330.94;;;11.10;76.15
77603;BME280;66771;52.434;17.056;2023-03-14T07:31:07;98328.39;;;11.16;75.91
77603;BME280;66771;52.434;17.056;2023-03-14T07:33:34;98320.98;;;11.18;75.80
77603;BME280;66771;52.434;17.056;2023-03-14T07:36:02;98313.07;;;11.17;75.18
77603;BME280;66771;52.434;17.056;2023-03-14T07:38:30;98327.48;;;11.24;75.13
77603;BME280;66771;52.434;17.056;2023-03-14T07:41:19;98324.48;;;11.30;75.37
77603;BME280;66771;52.434;17.056;2023-03-14T07:44:13;98313.34;;;11.39;74.67
77603;BME280;66771;52.434;17.056;2023-03-14T07:46:39;98322.20;;;11.45;75.09
77603;BME280;66771;52.434;17.056;2023-03-14T07:49:06;98326.86;;;11.50;75.19
77603;BME280;66771;52.434;17.056;2023-03-14T07:51:33;98328.81;;;11.51;74.34
77603;BME280;66771;52.434;17.056;2023-03-14T07:54:00;98337.64;;;11.55;74.74
77603;BME280;66771;52.434;17.056;2023-03-14T07:56:27;98338.09;;;11.59;74.25
77603;BME280;66771;52.434;17.056;2023-03-14T07:58:53;98338.02;;;11.70;74.65
77603;BME280;66771;52.434;17.056;2023-03-14T08:01:20;98334.94;;;11.80;74.53
77603;BME280;66771;52.434;17.056;2023-03-14T08:03:47;98336.04;;;11.89;73.47
77603;BME280;66771;52.434;17.056;2023-03-14T08:06:14;98333.23;;;11.99;73.92
77603;BME280;66771;52.434;17.056;2023-03-14T08:08:40;98331.66;;;12.11;73.73
77603;BME280;66771;52.434;17.056;2023-03-14T08:11:07;98323.83;;;12.20;73.52
77603;BME280;66771;52.434;17.056;2023-03-14T08:13:37;98329.31;;;12.28;73.78
77603;BME280;66771;52.434;17.056;2023-03-14T08:16:05;98325.60;;;12.34;72.64
77603;BME280;66771;52.434;17.056;2023-03-14T08:18:32;98335.58;;;12.36;72.97
77603;BME280;66771;52.434;17.056;2023-03-14T08:20:59;98340.64;;;12.44;72.71
77603;BME280;66771;52.434;17.056;2023-03-14T08:23:26;98351.45;;;12.49;72.20
77603;BME280;66771;52.434;17.056;2023-03-14T08:25:53;98359.95;;;12.54;71.51
77603;BME280;66771;52.434;17.056;2023-03-14T08:28:19;98372.23;;;12.58;71.35
77603;BME280;66771;52.434;17.056;2023-03-14T08:30:46;98368.36;;;12.62;71.02
77603;BME280;66771;52.434;17.056;2023-03-14T08:33:13;98367.23;;;12.69;72.19
77603;BME280;66771;52.434;17.056;2023-03-14T08:35:40;98364.72;;;12.80;71.99
77603;BME280;66771;52.434;17.056;2023-03-14T08:38:06;98357.02;;;12.91;71.38
77603;BME280;66771;52.434;17.056;2023-03-14T08:40:33;98353.52;;;13.00;71.08
77603;BME280;66771;52.434;17.056;2023-03-14T08:43:00;98350.28;;;13.09;70.36
77603;BME280;66771;52.434;17.056;2023-03-14T08:45:28;98347.77;;;13.14;69.80
77603;BME280;66771;52.434;17.056;2023-03-14T08:47:54;98346.48;;;13.19;70.43
77603;BME280;66771;52.434;17.056;2023-03-14T08:50:21;98340.86;;;13.23;68.76
77603;BME280;66771;52.434;17.056;2023-03-14T08:52:49;98330.09;;;13.28;69.38
77603;BME280;66771;52.434;17.056;2023-03-14T08:55:16;98331.67;;;13.39;69.86
77603;BME280;66771;52.434;17.056;2023-03-14T08:57:43;98337.35;;;13.57;68.85
77603;BME280;66771;52.434;17.056;2023-03-14T09:00:10;98333.45;;;13.74;67.64
77603;BME280;66771;52.434;17.056;2023-03-14T09:02:41;98339.13;;;13.89;67.80
77603;BME280;66771;52.434;17.056;2023-03-14T09:05:10;98337.41;;;13.94;66.04
77603;BME280;66771;52.434;17.056;2023-03-14T09:07:37;98339.96;;;13.94;67.12
77603;BME280;66771;52.434;17.056;2023-03-14T09:10:06;98345.66;;;13.92;66.45
77603;BME280;66771;52.434;17.056;2023-03-14T09:12:33;98353.04;;;13.90;67.38
77603;BME280;66771;52.434;17.056;2023-03-14T09:15:00;98349.88;;;13.84;65.74
77603;BME280;66771;52.434;17.056;2023-03-14T09:17:27;98346.98;;;13.76;66.73
77603;BME280;66771;52.434;17.056;2023-03-14T09:19:55;98351.08;;;13.72;66.19
77603;BME280;66771;52.434;17.056;2023-03-14T09:22:22;98356.77;;;13.65;66.31
77603;BME280;66771;52.434;17.056;2023-03-14T09:24:48;98354.66;;;13.63;66.25
77603;BME280;66771;52.434;17.056;2023-03-14T09:27:15;98351.34;;;13.68;66.50
77603;BME280;66771;52.434;17.056;2023-03-14T09:29:42;98352.30;;;13.74;66.05
77603;BME280;66771;52.434;17.056;2023-03-14T09:32:08;98350.34;;;13.79;65.96
77603;BME280;66771;52.434;17.056;2023-03-14T09:34:35;98350.83;;;13.84;65.08
77603;BME280;66771;52.434;17.056;2023-03-14T09:37:02;98352.40;;;13.87;65.51
77603;BME280;66771;52.434;17.056;2023-03-14T09:39:29;98352.30;;;13.88;64.91
77603;BME280;66771;52.434;17.056;2023-03-14T09:41:56;98355.83;;;13.86;65.14
77603;BME280;66771;52.434;17.056;2023-03-14T09:44:30;98356.02;;;13.83;65.36
77603;BME280;66771;52.434;17.056;2023-03-14T09:47:02;98362.52;;;13.83;64.94
77603;BME280;66771;52.434;17.056;2023-03-14T09:49:34;98356.70;;;13.80;65.68
77603;BME280;66771;52.434;17.056;2023-03-14T09:52:06;98360.59;;;13.84;65.67
77603;BME280;66771;52.434;17.056;2023-03-14T09:54:44;98361.01;;;13.87;65.68
77603;BME280;66771;52.434;17.056;2023-03-14T09:57:24;98355.01;;;13.92;66.00
77603;BME280;66771;52.434;17.056;2023-03-14T09:59:56;98356.91;;;14.01;66.16
77603;BME280;66771;52.434;17.056;2023-03-14T10:02:28;98338.30;;;14.00;65.26
77603;BME280;66771;52.434;17.056;2023-03-14T10:04:56;98352.49;;;14.07;64.58
77603;BME280;66771;52.434;17.056;2023-03-14T10:07:33;98344.94;;;14.07;65.37
77603;BME280;66771;52.434;17.056;2023-03-14T10:10:00;98341.86;;;14.10;64.89
77603;BME280;66771;52.434;17.056;2023-03-14T10:12:35;98351.48;;;14.11;65.37
77603;BME280;66771;52.434;17.056;2023-03-14T10:15:12;98345.66;;;14.15;64.39
77603;BME280;66771;52.434;17.056;2023-03-14T10:17:44;98351.86;;;14.18;64.40
77603;BME280;66771;52.434;17.056;2023-03-14T10:20:43;98344.01;;;14.10;63.50
77603;BME280;66771;52.434;17.056;2023-03-14T10:25:40;98343.73;;;14.07;64.55
77603;BME280;66771;52.434;17.056;2023-03-14T10:28:29;98344.02;;;14.15;64.42
77603;BME280;66771;52.434;17.056;2023-03-14T10:30:57;98346.39;;;14.25;63.52
77603;BME280;66771;52.434;17.056;2023-03-14T10:33:27;98346.32;;;14.31;64.28
77603;BME280;66771;52.434;17.056;2023-03-14T10:38:42;98346.16;;;14.55;63.60
77603;BME280;66771;52.434;17.056;2023-03-14T10:41:30;98345.20;;;14.63;63.66
77603;BME280;66771;52.434;17.056;2023-03-14T10:43:59;98333.48;;;14.72;62.54
77603;BME280;66771;52.434;17.056;2023-03-14T10:46:30;98340.33;;;14.76;62.64
77603;BME280;66771;52.434;17.056;2023-03-14T10:49:27;98348.89;;;14.78;61.98
77603;BME280;66771;52.434;17.056;2023-03-14T10:51:54;98349.49;;;14.78;62.56
77603;BME280;66771;52.434;17.056;2023-03-14T10:54:22;98351.36;;;14.84;62.18
77603;BME280;66771;52.434;17.056;2023-03-14T10:57:00;98352.55;;;14.81;61.99
77603;BME280;66771;52.434;17.056;2023-03-14T10:59:30;98352.65;;;14.75;62.18
77603;BME280;66771;52.434;17.056;2023-03-14T11:07:40;98350.38;;;14.59;62.81
77603;BME280;66771;52.434;17.056;2023-03-14T11:10:26;98351.22;;;14.47;62.98
77603;BME280;66771;52.434;17.056;2023-03-14T11:13:40;98346.01;;;14.30;62.58
77603;BME280;66771;52.434;17.056;2023-03-14T11:19:51;98354.77;;;14.21;62.90
77603;BME280;66771;52.434;17.056;2023-03-14T11:24:49;98353.30;;;14.33;63.66
77603;BME280;66771;52.434;17.056;2023-03-14T11:27:33;98350.30;;;14.52;62.79
77603;BME280;66771;52.434;17.056;2023-03-14T11:38:33;98336.77;;;15.38;62.28
77603;BME280;66771;52.434;17.056;2023-03-14T11:41:01;98338.52;;;15.41;62.24
77603;BME280;66771;52.434;17.056;2023-03-14T11:43:35;98335.61;;;15.44;61.99
77603;BME280;66771;52.434;17.056;2023-03-14T11:46:13;98335.19;;;15.34;61.33
77603;BME280;66771;52.434;17.056;2023-03-14T11:51:24;98340.39;;;15.34;62.41
77603;BME280;66771;52.434;17.056;2023-03-14T11:56:43;98337.31;;;15.61;62.09
77603;BME280;66771;52.434;17.056;2023-03-14T11:59:27;98334.38;;;15.76;61.83
77603;BME280;66771;52.434;17.056;2023-03-14T12:02:03;98323.59;;;15.87;60.48
77603;BME280;66771;52.434;17.056;2023-03-14T12:07:04;98316.13;;;16.50;59.69
77603;BME280;66771;52.434;17.056;2023-03-14T12:09:33;98313.73;;;16.59;60.03
77603;BME280;66771;52.434;17.056;2023-03-14T12:12:03;98308.70;;;16.38;59.81
77603;BME280;66771;52.434;17.056;2023-03-14T12:14:33;98307.51;;;16.06;59.77
77603;BME280;66771;52.434;17.056;2023-03-14T12:17:19;98310.94;;;15.62;59.93
77603;BME280;66771;52.434;17.056;2023-03-14T12:19:47;98303.08;;;15.21;60.66
77603;BME280;66771;52.434;17.056;2023-03-14T12:22:33;98302.52;;;14.95;60.95
77603;BME280;66771;52.434;17.056;2023-03-14T12:25:25;98294.83;;;14.74;61.10
77603;BME280;66771;52.434;17.056;2023-03-14T12:30:35;98299.64;;;14.68;61.91
77603;BME280;66771;52.434;17.056;2023-03-14T12:43:38;98301.09;;;15.27;59.33
77603;BME280;66771;52.434;17.056;2023-03-14T12:48:49;98302.48;;;15.32;59.42
77603;BME280;66771;52.434;17.056;2023-03-14T12:51:19;98302.69;;;15.36;58.58
77603;BME280;66771;52.434;17.056;2023-03-14T12:54:00;98302.81;;;15.31;58.53
77603;BME280;66771;52.434;17.056;2023-03-14T13:01:56;98296.19;;;15.06;57.46
77603;BME280;66771;52.434;17.056;2023-03-14T13:04:29;98299.04;;;15.08;57.59
77603;BME280;66771;52.434;17.056;2023-03-14T13:06:59;98291.42;;;15.09;55.32
77603;BME280;66771;52.434;17.056;2023-03-14T13:12:13;98305.89;;;15.23;55.76
77603;BME280;66771;52.434;17.056;2023-03-14T13:14:48;98303.86;;;15.35;55.79
77603;BME280;66771;52.434;17.056;2023-03-14T13:17:25;98301.95;;;15.49;55.55
77603;BME280;66771;52.434;17.056;2023-03-14T13:19:56;98304.84;;;15.73;56.60
77603;BME280;66771;52.434;17.056;2023-03-14T13:22:30;98302.10;;;16.12;55.10
77603;BME280;66771;52.434;17.056;2023-03-14T13:25:04;98304.54;;;16.44;53.10
77603;BME280;66771;52.434;17.056;2023-03-14T13:27:34;98302.30;;;16.55;51.59
77603;BME280;66771;52.434;17.056;2023-03-14T13:30:16;98300.36;;;16.65;52.53
77603;BME280;66771;52.434;17.056;2023-03-14T13:32:44;98299.81;;;16.76;50.81
77603;BME280;66771;52.434;17.056;2023-03-14T13:35:25;98300.79;;;16.56;50.53
77603;BME280;66771;52.434;17.056;2023-03-14T13:38:00;98304.78;;;16.32;51.71
77603;BME280;66771;52.434;17.056;2023-03-14T13:40:32;98302.04;;;16.20;52.52
77603;BME280;66771;52.434;17.056;2023-03-14T13:43:14;98300.15;;;16.21;52.69
77603;BME280;66771;52.434;17.056;2023-03-14T13:46:05;98295.70;;;16.10;53.08
77603;BME280;66771;52.434;17.056;2023-03-14T13:48:36;98299.61;;;15.96;53.68
77603;BME280;66771;52.434;17.056;2023-03-14T13:51:12;98301.61;;;15.77;53.89
77603;BME280;66771;52.434;17.056;2023-03-14T13:53:53;98300.91;;;15.50;53.73
77603;BME280;66771;52.434;17.056;2023-03-14T13:56:23;98299.75;;;15.23;54.33
77603;BME280;66771;52.434;17.056;2023-03-14T13:58:50;98299.48;;;15.00;53.73
77603;BME280;66771;52.434;17.056;2023-03-14T14:01:41;98297.33;;;14.86;54.47
77603;BME280;66771;52.434;17.056;2023-03-14T14:04:14;98290.19;;;14.73;54.91
77603;BME280;66771;52.434;17.056;2023-03-14T14:06:59;98295.60;;;14.70;55.41
77603;BME280;66771;52.434;17.056;2023-03-14T14:09:29;98296.27;;;14.61;55.95
77603;BME280;66771;52.434;17.056;2023-03-14T14:12:03;98301.52;;;14.55;56.47
77603;BME280;66771;52.434;17.056;2023-03-14T14:14:35;98298.52;;;14.47;56.61
77603;BME280;66771;52.434;17.056;2023-03-14T14:17:10;98301.70;;;14.40;56.42
77603;BME280;66771;52.434;17.056;2023-03-14T14:19:38;98300.34;;;14.29;56.41
77603;BME280;66771;52.434;17.056;2023-03-14T14:22:08;98296.61;;;14.20;56.60
77603;BME280;66771;52.434;17.056;2023-03-14T14:24:37;98292.50;;;14.17;57.05
77603;BME280;66771;52.434;17.056;2023-03-14T14:27:14;98292.27;;;14.11;56.88
77603;BME280;66771;52.434;17.056;2023-03-14T14:29:42;98287.52;;;14.08;57.13
77603;BME280;66771;52.434;17.056;2023-03-14T14:32:14;98284.15;;;14.07;57.92
77603;BME280;66771;52.434;17.056;2023-03-14T14:34:46;98286.97;;;14.06;58.03
77603;BME280;66771;52.434;17.056;2023-03-14T14:37:21;98292.66;;;14.02;58.13